sensor_id;sensor_type;location;lat;lon;timestamp;P1;durP1;ratioP1;P2;durP2;ratioP2
7829;SDS011;3960;51.86894000;5.39848000;2023-02-28T00:02:13;7.28;;;4.00;;
7829;SDS011;3960;51.86894000;5.39848000;2023-02-28T00:04:39;6.93;;;4.28;;
7829;SDS011;3960;51.86894000;5.39848000;2023-02-28T00:07:04;7.32;;;4.35;;
7829;SDS011;3960;51.86894000;5.39848000;2023-02-28T00:09:29;9.05;;;4.20;;
7829;SDS011;3960;51.86894000;5.39848000;2023-02-28T00:11:55;6.97;;;3.85;;
7829;SDS011;3960;51.86894000;5.39848000;2023-02-28T00:14:20;9.23;;;4.25;;
7829;SDS011;3960;51.86894000;5.39848000;2023-02-28T00:16:45;7.60;;;4.22;;
7829;SDS011;3960;51.86894000;5.39848000;2023-02-28T00:19:11;8.90;;;4.40;;
7829;SDS011;3960;51.86894000;5.39848000;2023-02-28T00:21:38;9.80;;;4.43;;
7829;SDS011;3960;51.86894000;5.39848000;2023-02-28T00:24:05;6.20;;;3.97;;
7829;SDS011;3960;51.86894000;5.39848000;2023-02-28T00:26:31;6.57;;;4.00;;
7829;SDS011;3960;51.86894000;5.39848000;2023-02-28T00:28:56;7.88;;;4.00;;
7829;SDS011;3960;51.86894000;5.39848000;2023-02-28T00:31:22;8.88;;;4.63;;
7829;SDS011;3960;51.86894000;5.39848000;2023-02-28T00:33:47;8.77;;;4.38;;
7829;SDS011;3960;51.86894000;5.39848000;2023-02-28T00:36:12;8.60;;;4.40;;
7829;SDS011;3960;51.86894000;5.39848000;2023-02-28T00:38:38;10.30;;;4.90;;
7829;SDS011;3960;51.86894000;5.39848000;2023-02-28T00:41:04;12.10;;;4.57;;
7829;SDS011;3960;51.86894000;5.39848000;2023-02-28T00:43:30;9.13;;;4.95;;
7829;SDS011;3960;51.86894000;5.39848000;2023-02-28T00:45:59;11.93;;;4.90;;
7829;SDS011;3960;51.86894000;5.39848000;2023-02-28T00:48:25;7.95;;;4.57;;
7829;SDS011;3960;51.86894000;5.39848000;2023-02-28T00:50:50;7.70;;;4.50;;
7829;SDS011;3960;51.86894000;5.39848000;2023-02-28T00:53:16;6.95;;;4.50;;
7829;SDS011;3960;51.86894000;5.39848000;2023-02-28T00:55:41;7.68;;;4.10;;
7829;SDS011;3960;51.86894000;5.39848000;2023-02-28T00:58:06;7.72;;;4.20;;
7829;SDS011;3960;51.86894000;5.39848000;2023-02-28T01:00:31;8.77;;;4.05;;
7829;SDS011;3960;51.86894000;5.39848000;2023-02-28T01:02:57;10.68;;;4.90;;
7829;SDS011;3960;51.86894000;5.39848000;2023-02-28T01:05:22;8.13;;;3.88;;
7829;SDS011;3960;51.86894000;5.39848000;2023-02-28T01:07:47;10.00;;;4.30;;
7829;SDS011;3960;51.86894000;5.39848000;2023-02-28T01:10:12;8.65;;;4.40;;
7829;SDS011;3960;51.86894000;5.39848000;2023-02-28T01:12:38;10.45;;;4.88;;
7829;SDS011;3960;51.86894000;5.39848000;2023-02-28T01:15:03;8.75;;;4.20;;
7829;SDS011;3960;51.86894000;5.39848000;2023-02-28T01:17:29;7.18;;;3.80;;
7829;SDS011;3960;51.86894000;5.39848000;2023-02-28T01:19:55;6.63;;;4.30;;
7829;SDS011;3960;51.86894000;5.39848000;2023-02-28T01:22:20;6.32;;;4.00;;
7829;SDS011;3960;51.86894000;5.39848000;2023-02-28T01:24:46;8.98;;;4.40;;
7829;SDS011;3960;51.86894000;5.39848000;2023-02-28T01:27:11;7.70;;;4.00;;
7829;SDS011;3960;51.86894000;5.39848000;2023-02-28T01:29:36;7.32;;;4.22;;
7829;SDS011;3960;51.86894000;5.39848000;2023-02-28T01:32:02;8.85;;;4.40;;
7829;SDS011;3960;51.86894000;5.39848000;2023-02-28T01:34:27;7.90;;;4.40;;
7829;SDS011;3960;51.86894000;5.39848000;2023-02-28T01:36:53;10.23;;;4.20;;
7829;SDS011;3960;51.86894000;5.39848000;2023-02-28T01:39:18;7.05;;;4.10;;
7829;SDS011;3960;51.86894000;5.39848000;2023-02-28T01:41:43;7.07;;;4.18;;
7829;SDS011;3960;51.86894000;5.39848000;2023-02-28T01:47:11;7.53;;;3.58;;
7829;SDS011;3960;51.86894000;5.39848000;2023-02-28T01:49:37;8.05;;;4.55;;
7829;SDS011;3960;51.86894000;5.39848000;2023-02-28T01:52:03;6.05;;;3.90;;
7829;SDS011;3960;51.86894000;5.39848000;2023-02-28T01:54:29;6.57;;;4.72;;
7829;SDS011;3960;51.86894000;5.39848000;2023-02-28T01:57:05;9.85;;;4.43;;
7829;SDS011;3960;51.86894000;5.39848000;2023-02-28T01:59:37;6.07;;;3.97;;
7829;SDS011;3960;51.86894000;5.39848000;2023-02-28T02:02:10;8.50;;;4.10;;
7829;SDS011;3960;51.86894000;5.39848000;2023-02-28T02:04:39;10.68;;;4.07;;
7829;SDS011;3960;51.86894000;5.39848000;2023-02-28T02:07:11;6.90;;;4.40;;
7829;SDS011;3960;51.86894000;5.39848000;2023-02-28T02:09:38;7.00;;;4.05;;
7829;SDS011;3960;51.86894000;5.39848000;2023-02-28T02:12:17;13.00;;;4.75;;
7829;SDS011;3960;51.86894000;5.39848000;2023-02-28T02:14:58;6.95;;;4.20;;
7829;SDS011;3960;51.86894000;5.39848000;2023-02-28T02:20:29;8.57;;;4.45;;
7829;SDS011;3960;51.86894000;5.39848000;2023-02-28T02:26:12;9.93;;;4.22;;
7829;SDS011;3960;51.86894000;5.39848000;2023-02-28T02:31:31;9.07;;;4.80;;
7829;SDS011;3960;51.86894000;5.39848000;2023-02-28T02:45:09;8.65;;;4.43;;
7829;SDS011;3960;51.86894000;5.39848000;2023-02-28T02:47:44;7.47;;;4.72;;
7829;SDS011;3960;51.86894000;5.39848000;2023-02-28T02:50:12;9.43;;;4.47;;
7829;SDS011;3960;51.86894000;5.39848000;2023-02-28T02:52:45;8.07;;;4.72;;
7829;SDS011;3960;51.86894000;5.39848000;2023-02-28T02:55:16;6.53;;;4.50;;
7829;SDS011;3960;51.86894000;5.39848000;2023-02-28T03:00:12;7.90;;;4.75;;
7829;SDS011;3960;51.86894000;5.39848000;2023-02-28T03:02:39;7.20;;;4.50;;
7829;SDS011;3960;51.86894000;5.39848000;2023-02-28T03:05:12;11.88;;;4.38;;
7829;SDS011;3960;51.86894000;5.39848000;2023-02-28T03:07:43;9.13;;;5.00;;
7829;SDS011;3960;51.86894000;5.39848000;2023-02-28T03:10:55;10.43;;;5.15;;
7829;SDS011;3960;51.86894000;5.39848000;2023-02-28T03:13:09;6.97;;;5.10;;
7829;SDS011;3960;51.86894000;5.39848000;2023-02-28T03:15:58;9.52;;;5.07;;
7829;SDS011;3960;51.86894000;5.39848000;2023-02-28T03:18:41;8.88;;;4.45;;
7829;SDS011;3960;51.86894000;5.39848000;2023-02-28T03:24:49;7.13;;;5.13;;
7829;SDS011;3960;51.86894000;5.39848000;2023-02-28T03:27:21;11.13;;;5.22;;
7829;SDS011;3960;51.86894000;5.39848000;2023-02-28T03:30:02;11.30;;;5.60;;
7829;SDS011;3960;51.86894000;5.39848000;2023-02-28T03:32:33;12.98;;;5.50;;
7829;SDS011;3960;51.86894000;5.39848000;2023-02-28T03:37:48;9.73;;;5.28;;
7829;SDS011;3960;51.86894000;5.39848000;2023-02-28T03:40:19;8.90;;;4.80;;
7829;SDS011;3960;51.86894000;5.39848000;2023-02-28T03:42:48;8.65;;;5.00;;
7829;SDS011;3960;51.86894000;5.39848000;2023-02-28T03:45:28;8.43;;;5.13;;
7829;SDS011;3960;51.86894000;5.39848000;2023-02-28T03:48:05;8.85;;;5.30;;
7829;SDS011;3960;51.86894000;5.39848000;2023-02-28T03:50:41;7.13;;;4.60;;
7829;SDS011;3960;51.86894000;5.39848000;2023-02-28T03:53:17;9.85;;;5.20;;
7829;SDS011;3960;51.86894000;5.39848000;2023-02-28T03:55:51;9.35;;;4.82;;
7829;SDS011;3960;51.86894000;5.39848000;2023-02-28T03:58:29;8.07;;;5.50;;
7829;SDS011;3960;51.86894000;5.39848000;2023-02-28T04:01:07;10.00;;;5.57;;
7829;SDS011;3960;51.86894000;5.39848000;2023-02-28T04:03:36;12.88;;;4.93;;
7829;SDS011;3960;51.86894000;5.39848000;2023-02-28T04:06:03;10.30;;;5.07;;
7829;SDS011;3960;51.86894000;5.39848000;2023-02-28T04:08:29;8.15;;;4.63;;
7829;SDS011;3960;51.86894000;5.39848000;2023-02-28T04:10:56;10.85;;;4.50;;
7829;SDS011;3960;51.86894000;5.39848000;2023-02-28T04:13:26;12.02;;;4.22;;
7829;SDS011;3960;51.86894000;5.39848000;2023-02-28T04:15:51;6.88;;;4.20;;
7829;SDS011;3960;51.86894000;5.39848000;2023-02-28T04:18:16;6.38;;;3.95;;
7829;SDS011;3960;51.86894000;5.39848000;2023-02-28T04:20:42;6.68;;;3.95;;
7829;SDS011;3960;51.86894000;5.39848000;2023-02-28T04:23:07;8.57;;;3.85;;
7829;SDS011;3960;51.86894000;5.39848000;2023-02-28T04:25:32;12.05;;;4.43;;
7829;SDS011;3960;51.86894000;5.39848000;2023-02-28T04:27:57;6.30;;;3.97;;
7829;SDS011;3960;51.86894000;5.39848000;2023-02-28T04:30:23;6.60;;;3.88;;
7829;SDS011;3960;51.86894000;5.39848000;2023-02-28T04:32:48;8.50;;;3.80;;
7829;SDS011;3960;51.86894000;5.39848000;2023-02-28T04:35:14;5.32;;;3.67;;
7829;SDS011;3960;51.86894000;5.39848000;2023-02-28T04:37:39;7.43;;;3.63;;
7829;SDS011;3960;51.86894000;5.39848000;2023-02-28T04:40:05;6.38;;;4.28;;
7829;SDS011;3960;51.86894000;5.39848000;2023-02-28T04:42:30;4.88;;;3.63;;
7829;SDS011;3960;51.86894000;5.39848000;2023-02-28T04:45:00;7.10;;;4.05;;
7829;SDS011;3960;51.86894000;5.39848000;2023-02-28T04:47:27;9.93;;;3.58;;
7829;SDS011;3960;51.86894000;5.39848000;2023-02-28T04:49:52;5.07;;;3.10;;
7829;SDS011;3960;51.86894000;5.39848000;2023-02-28T04:52:17;4.63;;;3.03;;
7829;SDS011;3960;51.86894000;5.39848000;2023-02-28T04:54:43;6.85;;;3.58;;
7829;SDS011;3960;51.86894000;5.39848000;2023-02-28T04:57:08;4.90;;;2.78;;
7829;SDS011;3960;51.86894000;5.39848000;2023-02-28T04:59:33;4.68;;;2.90;;
7829;SDS011;3960;51.86894000;5.39848000;2023-02-28T05:01:58;3.85;;;2.60;;
7829;SDS011;3960;51.86894000;5.39848000;2023-02-28T05:04:24;3.83;;;2.67;;
7829;SDS011;3960;51.86894000;5.39848000;2023-02-28T05:06:49;3.33;;;2.40;;
7829;SDS011;3960;51.86894000;5.39848000;2023-02-28T05:09:14;6.32;;;2.33;;
7829;SDS011;3960;51.86894000;5.39848000;2023-02-28T05:11:40;3.63;;;2.08;;
7829;SDS011;3960;51.86894000;5.39848000;2023-02-28T05:14:09;3.30;;;2.30;;
7829;SDS011;3960;51.86894000;5.39848000;2023-02-28T05:16:36;5.03;;;2.65;;
7829;SDS011;3960;51.86894000;5.39848000;2023-02-28T05:19:02;4.57;;;2.47;;
7829;SDS011;3960;51.86894000;5.39848000;2023-02-28T05:23:58;6.60;;;2.90;;
7829;SDS011;3960;51.86894000;5.39848000;2023-02-28T05:26:25;7.47;;;3.08;;
7829;SDS011;3960;51.86894000;5.39848000;2023-02-28T05:28:51;6.18;;;2.70;;
7829;SDS011;3960;51.86894000;5.39848000;2023-02-28T05:31:16;2.78;;;2.03;;
7829;SDS011;3960;51.86894000;5.39848000;2023-02-28T05:33:42;5.53;;;2.08;;
7829;SDS011;3960;51.86894000;5.39848000;2023-02-28T05:36:07;4.63;;;2.47;;
7829;SDS011;3960;51.86894000;5.39848000;2023-02-28T05:38:33;2.88;;;1.98;;
7829;SDS011;3960;51.86894000;5.39848000;2023-02-28T05:40:58;3.38;;;2.00;;
7829;SDS011;3960;51.86894000;5.39848000;2023-02-28T05:43:24;3.03;;;2.15;;
7829;SDS011;3960;51.86894000;5.39848000;2023-02-28T05:45:49;2.97;;;2.03;;
7829;SDS011;3960;51.86894000;5.39848000;2023-02-28T05:48:15;7.88;;;2.80;;
7829;SDS011;3960;51.86894000;5.39848000;2023-02-28T05:50:40;4.13;;;2.22;;
7829;SDS011;3960;51.86894000;5.39848000;2023-02-28T05:53:07;4.90;;;2.30;;
7829;SDS011;3960;51.86894000;5.39848000;2023-02-28T05:55:32;3.13;;;2.05;;
7829;SDS011;3960;51.86894000;5.39848000;2023-02-28T05:57:58;4.03;;;2.53;;
7829;SDS011;3960;51.86894000;5.39848000;2023-02-28T06:00:23;6.47;;;2.55;;
7829;SDS011;3960;51.86894000;5.39848000;2023-02-28T06:02:49;4.70;;;2.75;;
7829;SDS011;3960;51.86894000;5.39848000;2023-02-28T06:05:15;4.88;;;2.38;;
7829;SDS011;3960;51.86894000;5.39848000;2023-02-28T06:07:41;5.07;;;2.70;;
7829;SDS011;3960;51.86894000;5.39848000;2023-02-28T06:10:07;7.55;;;2.72;;
7829;SDS011;3960;51.86894000;5.39848000;2023-02-28T06:12:33;5.70;;;2.55;;
7829;SDS011;3960;51.86894000;5.39848000;2023-02-28T06:14:58;4.50;;;2.50;;
7829;SDS011;3960;51.86894000;5.39848000;2023-02-28T06:17:23;6.28;;;2.55;;
7829;SDS011;3960;51.86894000;5.39848000;2023-02-28T06:19:48;4.15;;;2.80;;
7829;SDS011;3960;51.86894000;5.39848000;2023-02-28T06:22:14;5.50;;;2.80;;
7829;SDS011;3960;51.86894000;5.39848000;2023-02-28T06:24:39;6.70;;;2.67;;
7829;SDS011;3960;51.86894000;5.39848000;2023-02-28T06:27:04;6.47;;;2.90;;
7829;SDS011;3960;51.86894000;5.39848000;2023-02-28T06:29:31;3.63;;;2.60;;
7829;SDS011;3960;51.86894000;5.39848000;2023-02-28T06:31:57;3.78;;;2.45;;
7829;SDS011;3960;51.86894000;5.39848000;2023-02-28T06:34:22;3.58;;;2.78;;
7829;SDS011;3960;51.86894000;5.39848000;2023-02-28T06:36:49;5.95;;;3.03;;
7829;SDS011;3960;51.86894000;5.39848000;2023-02-28T06:39:15;4.18;;;2.90;;
7829;SDS011;3960;51.86894000;5.39848000;2023-02-28T06:41:41;5.22;;;3.00;;
7829;SDS011;3960;51.86894000;5.39848000;2023-02-28T06:44:12;5.72;;;3.08;;
7829;SDS011;3960;51.86894000;5.39848000;2023-02-28T06:46:40;6.95;;;2.70;;
7829;SDS011;3960;51.86894000;5.39848000;2023-02-28T06:49:06;4.53;;;2.83;;
7829;SDS011;3960;51.86894000;5.39848000;2023-02-28T06:51:36;6.57;;;3.25;;
7829;SDS011;3960;51.86894000;5.39848000;2023-02-28T06:54:03;5.43;;;2.95;;
7829;SDS011;3960;51.86894000;5.39848000;2023-02-28T06:56:29;3.75;;;2.80;;
7829;SDS011;3960;51.86894000;5.39848000;2023-02-28T06:58:55;8.23;;;3.58;;
7829;SDS011;3960;51.86894000;5.39848000;2023-02-28T07:01:21;7.38;;;3.25;;
7829;SDS011;3960;51.86894000;5.39848000;2023-02-28T07:03:48;6.05;;;3.70;;
7829;SDS011;3960;51.86894000;5.39848000;2023-02-28T07:06:17;5.05;;;3.38;;
7829;SDS011;3960;51.86894000;5.39848000;2023-02-28T07:08:43;6.40;;;3.35;;
7829;SDS011;3960;51.86894000;5.39848000;2023-02-28T07:11:09;6.32;;;3.47;;
7829;SDS011;3960;51.86894000;5.39848000;2023-02-28T07:13:35;4.38;;;2.83;;
7829;SDS011;3960;51.86894000;5.39848000;2023-02-28T07:16:01;5.90;;;3.35;;
7829;SDS011;3960;51.86894000;5.39848000;2023-02-28T07:18:28;4.88;;;2.88;;
7829;SDS011;3960;51.86894000;5.39848000;2023-02-28T07:20:54;6.60;;;2.97;;
7829;SDS011;3960;51.86894000;5.39848000;2023-02-28T07:23:20;6.20;;;3.17;;
7829;SDS011;3960;51.86894000;5.39848000;2023-02-28T07:25:45;11.93;;;3.20;;
7829;SDS011;3960;51.86894000;5.39848000;2023-02-28T07:28:12;7.32;;;3.13;;
7829;SDS011;3960;51.86894000;5.39848000;2023-02-28T07:30:38;4.63;;;2.80;;
7829;SDS011;3960;51.86894000;5.39848000;2023-02-28T07:33:04;5.47;;;3.00;;
7829;SDS011;3960;51.86894000;5.39848000;2023-02-28T07:35:30;7.90;;;3.53;;
7829;SDS011;3960;51.86894000;5.39848000;2023-02-28T07:37:57;3.88;;;2.80;;
7829;SDS011;3960;51.86894000;5.39848000;2023-02-28T07:40:22;8.88;;;3.53;;
7829;SDS011;3960;51.86894000;5.39848000;2023-02-28T07:42:48;5.43;;;2.80;;
7829;SDS011;3960;51.86894000;5.39848000;2023-02-28T07:45:13;7.38;;;2.70;;
7829;SDS011;3960;51.86894000;5.39848000;2023-02-28T07:47:39;8.93;;;2.90;;
7829;SDS011;3960;51.86894000;5.39848000;2023-02-28T07:50:05;5.00;;;2.40;;
7829;SDS011;3960;51.86894000;5.39848000;2023-02-28T07:52:31;4.15;;;2.47;;
7829;SDS011;3960;51.86894000;5.39848000;2023-02-28T07:54:57;8.40;;;2.70;;
7829;SDS011;3960;51.86894000;5.39848000;2023-02-28T07:57:22;7.38;;;3.00;;
7829;SDS011;3960;51.86894000;5.39848000;2023-02-28T07:59:48;3.92;;;2.60;;
7829;SDS011;3960;51.86894000;5.39848000;2023-02-28T08:02:13;5.15;;;2.72;;
7829;SDS011;3960;51.86894000;5.39848000;2023-02-28T08:04:43;9.20;;;2.80;;
7829;SDS011;3960;51.86894000;5.39848000;2023-02-28T08:07:08;7.35;;;2.53;;
7829;SDS011;3960;51.86894000;5.39848000;2023-02-28T08:09:38;4.75;;;2.33;;
7829;SDS011;3960;51.86894000;5.39848000;2023-02-28T08:12:04;7.15;;;2.25;;
7829;SDS011;3960;51.86894000;5.39848000;2023-02-28T08:14:29;5.85;;;2.60;;
7829;SDS011;3960;51.86894000;5.39848000;2023-02-28T08:16:54;3.97;;;2.10;;
7829;SDS011;3960;51.86894000;5.39848000;2023-02-28T08:19:20;4.15;;;2.40;;
7829;SDS011;3960;51.86894000;5.39848000;2023-02-28T08:21:45;3.85;;;2.20;;
7829;SDS011;3960;51.86894000;5.39848000;2023-02-28T08:24:10;4.60;;;2.45;;
7829;SDS011;3960;51.86894000;5.39848000;2023-02-28T08:26:36;4.25;;;2.25;;
7829;SDS011;3960;51.86894000;5.39848000;2023-02-28T08:29:01;4.18;;;2.22;;
7829;SDS011;3960;51.86894000;5.39848000;2023-02-28T08:31:26;2.92;;;1.80;;
7829;SDS011;3960;51.86894000;5.39848000;2023-02-28T08:33:51;2.80;;;2.30;;
7829;SDS011;3960;51.86894000;5.39848000;2023-02-28T08:36:18;5.13;;;2.38;;
7829;SDS011;3960;51.86894000;5.39848000;2023-02-28T08:38:45;3.60;;;2.50;;
7829;SDS011;3960;51.86894000;5.39848000;2023-02-28T08:41:11;3.55;;;2.20;;
7829;SDS011;3960;51.86894000;5.39848000;2023-02-28T08:43:37;5.40;;;1.83;;
7829;SDS011;3960;51.86894000;5.39848000;2023-02-28T08:46:04;3.03;;;1.90;;
7829;SDS011;3960;51.86894000;5.39848000;2023-02-28T08:48:30;4.22;;;2.00;;
7829;SDS011;3960;51.86894000;5.39848000;2023-02-28T08:50:58;4.13;;;2.05;;
7829;SDS011;3960;51.86894000;5.39848000;2023-02-28T08:53:26;2.40;;;1.95;;
7829;SDS011;3960;51.86894000;5.39848000;2023-02-28T08:55:58;2.78;;;1.95;;
7829;SDS011;3960;51.86894000;5.39848000;2023-02-28T08:58:25;3.22;;;2.20;;
7829;SDS011;3960;51.86894000;5.39848000;2023-02-28T09:00:51;3.10;;;2.10;;
7829;SDS011;3960;51.86894000;5.39848000;2023-02-28T09:03:17;3.65;;;2.40;;
7829;SDS011;3960;51.86894000;5.39848000;2023-02-28T09:05:51;4.47;;;2.00;;
7829;SDS011;3960;51.86894000;5.39848000;2023-02-28T09:08:21;1.95;;;1.75;;
7829;SDS011;3960;51.86894000;5.39848000;2023-02-28T09:10:46;4.68;;;2.55;;
7829;SDS011;3960;51.86894000;5.39848000;2023-02-28T09:13:12;4.72;;;2.00;;
7829;SDS011;3960;51.86894000;5.39848000;2023-02-28T09:15:38;2.83;;;1.80;;
7829;SDS011;3960;51.86894000;5.39848000;2023-02-28T09:18:03;5.30;;;1.90;;
7829;SDS011;3960;51.86894000;5.39848000;2023-02-28T09:20:29;5.60;;;2.05;;
7829;SDS011;3960;51.86894000;5.39848000;2023-02-28T09:22:54;3.85;;;2.00;;
7829;SDS011;3960;51.86894000;5.39848000;2023-02-28T09:25:20;6.30;;;1.80;;
7829;SDS011;3960;51.86894000;5.39848000;2023-02-28T09:27:45;2.88;;;1.98;;
7829;SDS011;3960;51.86894000;5.39848000;2023-02-28T09:30:10;3.65;;;2.17;;
7829;SDS011;3960;51.86894000;5.39848000;2023-02-28T09:32:36;4.03;;;1.70;;
7829;SDS011;3960;51.86894000;5.39848000;2023-02-28T09:35:02;1.40;;;1.30;;
7829;SDS011;3960;51.86894000;5.39848000;2023-02-28T09:37:27;2.00;;;1.73;;
7829;SDS011;3960;51.86894000;5.39848000;2023-02-28T09:39:54;2.72;;;1.70;;
7829;SDS011;3960;51.86894000;5.39848000;2023-02-28T09:42:30;3.83;;;1.60;;
7829;SDS011;3960;51.86894000;5.39848000;2023-02-28T09:44:58;2.58;;;1.77;;
7829;SDS011;3960;51.86894000;5.39848000;2023-02-28T09:49:58;4.65;;;2.35;;
7829;SDS011;3960;51.86894000;5.39848000;2023-02-28T09:52:32;2.53;;;1.80;;
7829;SDS011;3960;51.86894000;5.39848000;2023-02-28T09:55:20;3.10;;;2.15;;
7829;SDS011;3960;51.86894000;5.39848000;2023-02-28T09:57:54;3.90;;;2.10;;
7829;SDS011;3960;51.86894000;5.39848000;2023-02-28T10:00:23;3.45;;;1.95;;
7829;SDS011;3960;51.86894000;5.39848000;2023-02-28T10:05:33;2.40;;;1.85;;
7829;SDS011;3960;51.86894000;5.39848000;2023-02-28T10:10:44;5.32;;;2.25;;
7829;SDS011;3960;51.86894000;5.39848000;2023-02-28T10:13:33;3.75;;;2.00;;
7829;SDS011;3960;51.86894000;5.39848000;2023-02-28T10:16:03;3.75;;;1.90;;
7829;SDS011;3960;51.86894000;5.39848000;2023-02-28T10:19:06;2.95;;;2.15;;
7829;SDS011;3960;51.86894000;5.39848000;2023-02-28T10:21:35;2.50;;;1.50;;
7829;SDS011;3960;51.86894000;5.39848000;2023-02-28T10:24:20;3.25;;;2.22;;
7829;SDS011;3960;51.86894000;5.39848000;2023-02-28T10:26:52;2.50;;;1.95;;
7829;SDS011;3960;51.86894000;5.39848000;2023-02-28T10:29:25;2.85;;;1.80;;
7829;SDS011;3960;51.86894000;5.39848000;2023-02-28T10:31:51;3.03;;;2.00;;
7829;SDS011;3960;51.86894000;5.39848000;2023-02-28T10:34:17;2.28;;;1.65;;
7829;SDS011;3960;51.86894000;5.39848000;2023-02-28T10:36:42;3.25;;;2.03;;
7829;SDS011;3960;51.86894000;5.39848000;2023-02-28T10:42:22;2.47;;;1.60;;
7829;SDS011;3960;51.86894000;5.39848000;2023-02-28T10:45:04;5.13;;;2.33;;
7829;SDS011;3960;51.86894000;5.39848000;2023-02-28T10:47:31;3.00;;;2.50;;
7829;SDS011;3960;51.86894000;5.39848000;2023-02-28T10:49:59;3.38;;;2.20;;
7829;SDS011;3960;51.86894000;5.39848000;2023-02-28T10:52:39;6.07;;;3.42;;
7829;SDS011;3960;51.86894000;5.39848000;2023-02-28T10:58:00;3.10;;;1.80;;
7829;SDS011;3960;51.86894000;5.39848000;2023-02-28T11:00:26;2.78;;;1.73;;
7829;SDS011;3960;51.86894000;5.39848000;2023-02-28T11:02:58;2.97;;;1.48;;
7829;SDS011;3960;51.86894000;5.39848000;2023-02-28T11:08:09;1.90;;;1.55;;
7829;SDS011;3960;51.86894000;5.39848000;2023-02-28T11:10:38;5.32;;;1.80;;
7829;SDS011;3960;51.86894000;5.39848000;2023-02-28T11:13:04;3.83;;;1.55;;
7829;SDS011;3960;51.86894000;5.39848000;2023-02-28T11:15:31;2.63;;;1.65;;
7829;SDS011;3960;51.86894000;5.39848000;2023-02-28T11:17:59;2.80;;;1.30;;
7829;SDS011;3960;51.86894000;5.39848000;2023-02-28T11:20:28;1.83;;;1.38;;
7829;SDS011;3960;51.86894000;5.39848000;2023-02-28T11:22:57;1.57;;;1.30;;
7829;SDS011;3960;51.86894000;5.39848000;2023-02-28T11:25:30;2.90;;;1.60;;
7829;SDS011;3960;51.86894000;5.39848000;2023-02-28T11:28:02;2.25;;;1.67;;
7829;SDS011;3960;51.86894000;5.39848000;2023-02-28T11:30:49;2.88;;;1.50;;
7829;SDS011;3960;51.86894000;5.39848000;2023-02-28T11:33:43;3.03;;;1.77;;
7829;SDS011;3960;51.86894000;5.39848000;2023-02-28T11:38:44;2.67;;;1.67;;
7829;SDS011;3960;51.86894000;5.39848000;2023-02-28T11:52:00;2.03;;;1.70;;
7829;SDS011;3960;51.86894000;5.39848000;2023-02-28T11:57:14;2.13;;;1.73;;
7829;SDS011;3960;51.86894000;5.39848000;2023-02-28T12:00:08;1.65;;;1.45;;
7829;SDS011;3960;51.86894000;5.39848000;2023-02-28T12:05:24;1.60;;;1.42;;
7829;SDS011;3960;51.86894000;5.39848000;2023-02-28T12:10:57;2.25;;;1.70;;
7829;SDS011;3960;51.86894000;5.39848000;2023-02-28T12:16:21;2.78;;;2.00;;
7829;SDS011;3960;51.86894000;5.39848000;2023-02-28T12:19:07;4.43;;;2.03;;
7829;SDS011;3960;51.86894000;5.39848000;2023-02-28T12:21:56;3.30;;;2.03;;
7829;SDS011;3960;51.86894000;5.39848000;2023-02-28T12:27:19;3.33;;;1.55;;
7829;SDS011;3960;51.86894000;5.39848000;2023-02-28T12:30:33;3.78;;;2.03;;
7829;SDS011;3960;51.86894000;5.39848000;2023-02-28T12:32:56;2.00;;;1.58;;
7829;SDS011;3960;51.86894000;5.39848000;2023-02-28T12:43:37;4.05;;;2.25;;
7829;SDS011;3960;51.86894000;5.39848000;2023-02-28T12:48:43;1.60;;;1.50;;
7829;SDS011;3960;51.86894000;5.39848000;2023-02-28T12:51:11;7.93;;;1.85;;
7829;SDS011;3960;51.86894000;5.39848000;2023-02-28T12:56:35;1.90;;;1.80;;
7829;SDS011;3960;51.86894000;5.39848000;2023-02-28T12:59:21;1.98;;;1.70;;
7829;SDS011;3960;51.86894000;5.39848000;2023-02-28T13:01:56;2.05;;;1.60;;
7829;SDS011;3960;51.86894000;5.39848000;2023-02-28T13:10:24;2.30;;;1.67;;
7829;SDS011;3960;51.86894000;5.39848000;2023-02-28T13:12:52;2.88;;;1.90;;
7829;SDS011;3960;51.86894000;5.39848000;2023-02-28T13:15:24;4.75;;;1.90;;
7829;SDS011;3960;51.86894000;5.39848000;2023-02-28T13:17:54;2.67;;;1.98;;
7829;SDS011;3960;51.86894000;5.39848000;2023-02-28T13:20:23;2.40;;;1.80;;
7829;SDS011;3960;51.86894000;5.39848000;2023-02-28T13:22:51;4.05;;;2.30;;
7829;SDS011;3960;51.86894000;5.39848000;2023-02-28T13:27:47;3.25;;;1.95;;
7829;SDS011;3960;51.86894000;5.39848000;2023-02-28T13:33:22;3.72;;;1.70;;
7829;SDS011;3960;51.86894000;5.39848000;2023-02-28T13:35:48;2.60;;;1.88;;
7829;SDS011;3960;51.86894000;5.39848000;2023-02-28T13:38:21;2.97;;;2.05;;
7829;SDS011;3960;51.86894000;5.39848000;2023-02-28T13:40:48;2.42;;;2.05;;
7829;SDS011;3960;51.86894000;5.39848000;2023-02-28T13:43:16;2.13;;;1.90;;
7829;SDS011;3960;51.86894000;5.39848000;2023-02-28T13:46:03;2.70;;;2.03;;
7829;SDS011;3960;51.86894000;5.39848000;2023-02-28T13:48:36;2.00;;;1.80;;
7829;SDS011;3960;51.86894000;5.39848000;2023-02-28T13:51:25;3.33;;;2.38;;
7829;SDS011;3960;51.86894000;5.39848000;2023-02-28T13:54:12;2.92;;;1.98;;
7829;SDS011;3960;51.86894000;5.39848000;2023-02-28T13:56:48;2.70;;;2.10;;
7829;SDS011;3960;51.86894000;5.39848000;2023-02-28T13:59:28;3.38;;;2.20;;
7829;SDS011;3960;51.86894000;5.39848000;2023-02-28T14:05:04;2.70;;;2.13;;
7829;SDS011;3960;51.86894000;5.39848000;2023-02-28T14:07:43;6.38;;;2.20;;
7829;SDS011;3960;51.86894000;5.39848000;2023-02-28T14:10:21;2.90;;;2.20;;
7829;SDS011;3960;51.86894000;5.39848000;2023-02-28T14:12:54;3.50;;;2.15;;
7829;SDS011;3960;51.86894000;5.39848000;2023-02-28T14:17:58;5.18;;;3.13;;
7829;SDS011;3960;51.86894000;5.39848000;2023-02-28T14:20:26;2.80;;;2.20;;
7829;SDS011;3960;51.86894000;5.39848000;2023-02-28T14:25:55;4.15;;;2.40;;
7829;SDS011;3960;51.86894000;5.39848000;2023-02-28T14:31:22;2.47;;;2.20;;
7829;SDS011;3960;51.86894000;5.39848000;2023-02-28T14:37:04;5.88;;;2.40;;
7829;SDS011;3960;51.86894000;5.39848000;2023-02-28T14:39:30;6.07;;;2.70;;
7829;SDS011;3960;51.86894000;5.39848000;2023-02-28T14:41:57;4.25;;;2.08;;
7829;SDS011;3960;51.86894000;5.39848000;2023-02-28T14:44:29;6.35;;;2.17;;
7829;SDS011;3960;51.86894000;5.39848000;2023-02-28T14:46:55;2.13;;;1.70;;
7829;SDS011;3960;51.86894000;5.39848000;2023-02-28T14:51:51;5.68;;;1.95;;
7829;SDS011;3960;51.86894000;5.39848000;2023-02-28T14:54:54;4.05;;;1.77;;
7829;SDS011;3960;51.86894000;5.39848000;2023-02-28T14:57:23;2.50;;;1.90;;
7829;SDS011;3960;51.86894000;5.39848000;2023-02-28T15:02:35;3.10;;;1.80;;
7829;SDS011;3960;51.86894000;5.39848000;2023-02-28T15:05:10;2.97;;;2.05;;
7829;SDS011;3960;51.86894000;5.39848000;2023-02-28T15:07:47;2.03;;;1.83;;
7829;SDS011;3960;51.86894000;5.39848000;2023-02-28T15:10:23;5.15;;;2.03;;
7829;SDS011;3960;51.86894000;5.39848000;2023-02-28T15:15:27;5.32;;;2.15;;
7829;SDS011;3960;51.86894000;5.39848000;2023-02-28T15:18:06;2.05;;;1.75;;
7829;SDS011;3960;51.86894000;5.39848000;2023-02-28T15:20:37;4.75;;;2.40;;
7829;SDS011;3960;51.86894000;5.39848000;2023-02-28T15:23:03;4.35;;;2.03;;
7829;SDS011;3960;51.86894000;5.39848000;2023-02-28T15:25:29;3.15;;;2.00;;
7829;SDS011;3960;51.86894000;5.39848000;2023-02-28T15:27:55;3.25;;;2.00;;